Wakaw, Canada
Current Conditions -  °F | °C
As of 9:29 PM on Tuesday 21 Oct 2014 (Local Time) from CYPA Reporting Station
Rain Showers Rain Showers  
Wind Chill: 57°   Ceiling: 12000
Heat Index: 57°   Visibility: 15mi
Dew Point: 41°   Wind: 14mph
Humidity: 55%   Direction: 20°NNE
Pressure: 29.53"   Gusts: NA
Location:  52.65°N, 105.73°W
Report Text: CYPA 220329Z 02012KT 15SM -SHRA FEW080 OVC120 14/05 A2953 RMK AC1AC7 WSHFT 0302 SLP012 DENSITY ALT 2000FT
Loading
Personal Weather Stations






























Interactive Weather Map
Tropical Storm Tracking
New forecast layout! Learn more

10-Day Weather Forecast

Advertisements
Track Severe Weather on mobile